createdAt,value
2022-08-17T00:01:57.511Z,42.76
2022-08-17T00:04:05.944Z,43.22
2022-08-17T00:06:19.687Z,43.21
2022-08-17T00:08:25.472Z,43.16
2022-08-17T00:10:27.565Z,43.15
2022-08-17T00:12:42.620Z,43.13
2022-08-17T00:14:45.377Z,43.07
2022-08-17T00:16:56.739Z,43.21
2022-08-17T00:19:07.707Z,43.24
2022-08-17T00:21:11.768Z,43.19
2022-08-17T00:23:16.657Z,43.36
2022-08-17T00:25:20.294Z,43.31
2022-08-17T00:27:22.013Z,43.52
2022-08-17T00:29:23.496Z,43.60
2022-08-17T00:31:25.484Z,43.66
2022-08-17T00:33:29.791Z,43.65
2022-08-17T00:35:31.690Z,43.60
2022-08-17T00:37:33.302Z,44.01
2022-08-17T00:39:34.947Z,43.75
2022-08-17T00:41:36.648Z,43.56
2022-08-17T00:44:00.928Z,44.04
2022-08-17T00:46:08.169Z,43.77
2022-08-17T00:48:11.548Z,43.90
2022-08-17T00:50:31.726Z,43.91
2022-08-17T00:52:39.520Z,44.01
2022-08-17T00:54:43.398Z,43.91
2022-08-17T00:56:51.193Z,44.04
2022-08-17T00:58:54.710Z,44.03
2022-08-17T01:00:56.785Z,43.88
2022-08-17T01:03:02.998Z,43.95
2022-08-17T01:05:06.760Z,44.18
2022-08-17T01:07:12.326Z,44.12
2022-08-17T01:09:15.619Z,44.39
2022-08-17T01:11:17.579Z,44.63
2022-08-17T01:13:20.747Z,44.30
2022-08-17T01:15:22.976Z,44.65
2022-08-17T01:17:24.643Z,44.56
2022-08-17T01:19:34.505Z,44.64
2022-08-17T01:21:50.290Z,44.74
2022-08-17T01:23:52.093Z,44.53
2022-08-17T01:25:57.258Z,44.84
2022-08-17T01:27:59.222Z,44.79
2022-08-17T01:30:05.628Z,44.74
2022-08-17T01:32:28.787Z,44.84
2022-08-17T01:34:42.773Z,44.76
2022-08-17T01:36:49.928Z,44.90
2022-08-17T01:38:51.539Z,44.75
2022-08-17T01:40:59.044Z,45.12
2022-08-17T01:43:07.309Z,44.97
2022-08-17T01:45:15.205Z,44.89
2022-08-17T01:47:16.752Z,45.02
2022-08-17T01:49:19.639Z,45.16
2022-08-17T01:51:21.671Z,45.19
2022-08-17T01:53:27.992Z,45.20
2022-08-17T01:55:39.822Z,45.40
2022-08-17T01:57:41.420Z,44.98
2022-08-17T01:59:43.174Z,45.15
2022-08-17T02:01:45.009Z,45.21
2022-08-17T02:03:56.170Z,45.41
2022-08-17T02:06:03.081Z,45.18
2022-08-17T02:08:07.434Z,45.49
2022-08-17T02:10:16.668Z,45.63
2022-08-17T02:12:38.172Z,45.22
2022-08-17T02:14:41.427Z,45.36
2022-08-17T02:16:43.335Z,45.65
2022-08-17T02:18:46.372Z,45.85
2022-08-17T02:20:48.004Z,45.57
2022-08-17T02:22:50.551Z,45.61
2022-08-17T02:25:01.018Z,45.74
2022-08-17T02:27:04.525Z,45.70
2022-08-17T02:29:06.205Z,45.86
2022-08-17T02:31:11.376Z,45.87
2022-08-17T02:33:13.003Z,45.73
2022-08-17T02:35:15.023Z,46.12
2022-08-17T02:37:21.053Z,46.09
2022-08-17T02:39:22.837Z,46.11
2022-08-17T02:41:24.484Z,46.37
2022-08-17T02:43:27.573Z,46.10
2022-08-17T02:45:29.524Z,46.37
2022-08-17T02:47:31.318Z,46.07
2022-08-17T02:49:32.858Z,46.50
2022-08-17T02:51:35.270Z,46.16
2022-08-17T02:53:36.903Z,46.29
2022-08-17T02:55:43.000Z,46.54
2022-08-17T02:57:44.757Z,46.39
2022-08-17T02:59:49.018Z,46.42
2022-08-17T03:01:51.107Z,46.48
2022-08-17T03:03:52.679Z,46.28
2022-08-17T03:05:54.265Z,46.59
2022-08-17T03:07:56.425Z,46.37
2022-08-17T03:09:57.943Z,46.43
2022-08-17T03:12:14.343Z,46.49
2022-08-17T03:14:15.887Z,46.75
2022-08-17T03:16:17.575Z,46.33
2022-08-17T03:18:25.735Z,46.49
2022-08-17T03:20:30.195Z,46.76
2022-08-17T03:22:47.940Z,46.64
2022-08-17T03:24:56.411Z,46.43
2022-08-17T03:26:57.946Z,46.43
2022-08-17T03:28:59.515Z,46.77
2022-08-17T03:31:01.195Z,46.61
2022-08-17T03:33:05.870Z,46.75
2022-08-17T03:35:09.588Z,47.14
2022-08-17T03:37:14.857Z,47.00
2022-08-17T03:39:16.309Z,47.19
2022-08-17T03:41:18.066Z,47.16
2022-08-17T03:43:22.126Z,47.36
2022-08-17T03:45:43.984Z,47.25
2022-08-17T03:48:04.224Z,46.93
2022-08-17T03:50:26.157Z,47.08
2022-08-17T03:52:46.646Z,47.36
2022-08-17T03:55:19.481Z,47.44
2022-08-17T03:57:37.382Z,47.27
2022-08-17T03:59:40.874Z,47.64
2022-08-17T04:01:45.030Z,47.98
2022-08-17T04:03:47.978Z,47.64
2022-08-17T04:05:49.491Z,47.35
2022-08-17T04:07:51.914Z,47.50
2022-08-17T04:09:54.601Z,47.40
2022-08-17T04:11:57.344Z,47.63
2022-08-17T04:14:05.812Z,47.52
2022-08-17T04:16:07.702Z,47.42
2022-08-17T04:18:11.030Z,47.29
2022-08-17T04:20:15.738Z,47.47
2022-08-17T04:22:30.508Z,47.14
2022-08-17T04:24:35.111Z,47.42
2022-08-17T04:26:53.422Z,47.63
2022-08-17T04:28:56.569Z,47.45
2022-08-17T04:30:59.038Z,47.50
2022-08-17T04:33:19.264Z,47.46
2022-08-17T04:35:23.961Z,47.87
2022-08-17T04:37:25.576Z,47.52
2022-08-17T04:39:28.977Z,47.69
2022-08-17T04:41:49.121Z,47.77
2022-08-17T04:43:55.938Z,47.34
2022-08-17T04:46:00.620Z,47.75
2022-08-17T04:48:02.302Z,47.57
2022-08-17T04:50:04.388Z,47.52
2022-08-17T04:52:06.009Z,47.56
2022-08-17T04:54:14.446Z,47.54
2022-08-17T04:56:18.931Z,47.51
2022-08-17T04:58:22.070Z,47.39
2022-08-17T05:00:25.764Z,47.45
2022-08-17T05:02:27.343Z,47.61
2022-08-17T05:04:34.781Z,47.66
2022-08-17T05:06:37.236Z,47.28
2022-08-17T05:08:39.558Z,47.24
2022-08-17T05:10:45.579Z,47.71
2022-08-17T05:12:47.478Z,47.29
2022-08-17T05:14:49.097Z,47.62
2022-08-17T05:16:51.172Z,48.12
2022-08-17T05:18:53.834Z,47.62
2022-08-17T05:20:56.407Z,48.02
2022-08-17T05:23:01.473Z,47.97
2022-08-17T05:25:03.131Z,47.78
2022-08-17T05:27:06.159Z,48.19
2022-08-17T05:29:08.347Z,47.98
2022-08-17T05:31:10.921Z,47.63
2022-08-17T05:33:21.762Z,47.74
2022-08-17T05:35:24.594Z,47.50
2022-08-17T05:37:26.317Z,47.74
2022-08-17T05:39:27.962Z,47.70
2022-08-17T05:41:29.514Z,47.49
2022-08-17T05:43:33.975Z,47.56
2022-08-17T05:45:54.866Z,47.49
2022-08-17T05:47:57.994Z,47.67
2022-08-17T05:50:01.537Z,47.69
2022-08-17T05:52:19.783Z,47.68
2022-08-17T05:54:36.076Z,47.59
2022-08-17T05:56:43.874Z,47.76
2022-08-17T05:58:59.670Z,47.67
2022-08-17T06:01:35.555Z,47.85
2022-08-17T06:03:54.496Z,48.12
2022-08-17T06:06:12.903Z,47.89
2022-08-17T06:08:45.585Z,48.55
2022-08-17T06:11:10.584Z,48.23
2022-08-17T06:13:31.613Z,48.57
2022-08-17T06:15:56.733Z,48.62
2022-08-17T06:18:06.122Z,48.33
2022-08-17T06:20:11.736Z,48.39
2022-08-17T06:22:16.606Z,48.16
2022-08-17T06:24:37.431Z,48.50
2022-08-17T06:26:43.397Z,48.40
2022-08-17T06:28:59.132Z,48.40
2022-08-17T06:31:08.290Z,48.38
2022-08-17T06:33:21.033Z,48.17
2022-08-17T06:35:35.114Z,48.29
2022-08-17T06:37:42.424Z,48.10
2022-08-17T06:40:16.685Z,48.36
2022-08-17T06:43:05.701Z,48.01
2022-08-17T06:45:15.338Z,47.83
2022-08-17T06:47:28.411Z,47.57
2022-08-17T06:49:40.568Z,47.67
2022-08-17T06:51:47.930Z,47.56
2022-08-17T06:54:11.450Z,47.38
2022-08-17T06:56:24.366Z,47.23
2022-08-17T06:58:46.602Z,47.12
2022-08-17T07:00:55.371Z,47.20
2022-08-17T07:03:31.727Z,47.34
2022-08-17T07:06:13.308Z,46.88
2022-08-17T07:08:35.057Z,46.96
2022-08-17T07:10:47.255Z,46.96
2022-08-17T07:12:51.947Z,46.42
2022-08-17T07:15:04.496Z,46.61
2022-08-17T07:17:13.704Z,46.50
2022-08-17T07:19:18.397Z,45.93
2022-08-17T07:21:26.760Z,45.89
2022-08-17T07:24:26.330Z,45.50
2022-08-17T07:26:31.740Z,45.68
2022-08-17T07:28:35.503Z,45.60
2022-08-17T07:30:49.020Z,45.47
2022-08-17T07:32:59.046Z,45.15
2022-08-17T07:35:11.327Z,45.27
2022-08-17T07:37:19.212Z,44.75
2022-08-17T07:39:27.370Z,45.05
2022-08-17T07:41:57.241Z,44.88
2022-08-17T07:43:57.132Z,44.91
2022-08-17T07:46:21.040Z,44.55
2022-08-17T07:48:26.188Z,44.85
2022-08-17T07:50:29.624Z,44.63
2022-08-17T07:52:50.797Z,44.50
2022-08-17T07:54:53.149Z,44.37
2022-08-17T07:56:56.610Z,44.25
2022-08-17T07:59:12.517Z,44.22
2022-08-17T08:01:18.258Z,44.29
2022-08-17T08:03:27.376Z,44.23
2022-08-17T08:05:49.439Z,44.34
2022-08-17T08:07:55.178Z,44.02
2022-08-17T08:09:59.581Z,44.02
2022-08-17T08:12:21.586Z,44.11
2022-08-17T08:14:36.792Z,43.69
2022-08-17T08:16:38.404Z,43.90
2022-08-17T08:18:55.592Z,43.62
2022-08-17T08:21:04.892Z,43.60
2022-08-17T08:23:16.453Z,43.73
2022-08-17T08:25:25.416Z,43.51
2022-08-17T08:27:45.786Z,43.34
2022-08-17T08:30:10.142Z,43.53
2022-08-17T08:32:33.359Z,43.37
2022-08-17T08:34:47.415Z,43.21
2022-08-17T08:37:17.125Z,43.18
2022-08-17T08:39:58.754Z,42.47
2022-08-17T08:42:13.078Z,42.12
2022-08-17T08:44:59.899Z,42.48
2022-08-17T08:47:35.493Z,42.24
2022-08-17T08:50:04.787Z,42.17
2022-08-17T08:52:30.981Z,41.43
2022-08-17T08:54:48.070Z,41.39
2022-08-17T08:57:22.160Z,41.36
2022-08-17T08:59:57.718Z,41.38
2022-08-17T09:02:12.029Z,40.88
2022-08-17T09:05:02.611Z,41.18
2022-08-17T09:06:59.769Z,41.03
2022-08-17T09:09:10.425Z,41.07
2022-08-17T09:12:02.339Z,40.66
2022-08-17T09:14:28.344Z,40.18
2022-08-17T09:16:45.498Z,39.44
2022-08-17T09:19:00.698Z,39.86
2022-08-17T09:21:21.558Z,39.24
2022-08-17T09:23:59.772Z,38.84
2022-08-17T09:26:16.259Z,38.77
2022-08-17T09:28:20.982Z,38.85
2022-08-17T09:30:23.649Z,38.64
2022-08-17T09:32:38.070Z,38.58
2022-08-17T09:35:04.265Z,38.46
2022-08-17T09:37:18.183Z,38.58
2022-08-17T09:39:43.193Z,38.38
2022-08-17T09:42:05.196Z,37.72
2022-08-17T09:44:38.335Z,37.31
2022-08-17T09:46:51.569Z,37.35
2022-08-17T09:49:05.919Z,36.92
2022-08-17T09:51:26.317Z,36.98
2022-08-17T09:53:31.756Z,36.83
2022-08-17T09:55:47.839Z,36.00
2022-08-17T09:58:07.738Z,35.60
2022-08-17T10:00:16.673Z,35.53
2022-08-17T10:02:21.457Z,35.28
2022-08-17T10:04:38.511Z,34.78
2022-08-17T10:06:58.942Z,34.88
2022-08-17T10:09:40.515Z,33.71
2022-08-17T10:12:09.209Z,33.90
2022-08-17T10:14:36.570Z,32.25
2022-08-17T10:16:52.175Z,32.14
2022-08-17T10:19:18.195Z,31.54
2022-08-17T10:21:39.448Z,32.18
2022-08-17T10:24:02.571Z,31.88
2022-08-17T10:26:13.788Z,32.18
2022-08-17T10:28:22.809Z,32.35
2022-08-17T10:30:32.894Z,32.67
2022-08-17T10:32:55.842Z,32.26
2022-08-17T10:35:09.549Z,32.54
2022-08-17T10:37:20.091Z,31.55
2022-08-17T10:39:51.972Z,31.40
2022-08-17T10:42:00.581Z,31.73
2022-08-17T10:44:38.659Z,31.45
2022-08-17T10:46:54.339Z,30.31
2022-08-17T10:49:16.614Z,29.47
2022-08-17T10:51:38.026Z,28.81
2022-08-17T10:53:43.357Z,29.58
2022-08-17T10:56:13.965Z,28.57
2022-08-17T10:58:22.169Z,29.08
2022-08-17T11:00:29.747Z,28.72
2022-08-17T11:02:51.837Z,28.75
2022-08-17T11:05:16.394Z,28.63
2022-08-17T11:07:43.770Z,27.95
2022-08-17T11:10:00.520Z,27.30
2022-08-17T11:12:30.639Z,27.71
2022-08-17T11:14:41.217Z,27.85
2022-08-17T11:17:01.121Z,28.00
2022-08-17T11:19:27.097Z,27.77
2022-08-17T11:22:01.670Z,28.06
2022-08-17T11:24:16.545Z,28.42
2022-08-17T11:26:27.029Z,29.05
2022-08-17T11:28:35.854Z,28.98
2022-08-17T11:30:49.034Z,28.93
2022-08-17T11:32:54.570Z,28.82
2022-08-17T11:35:21.245Z,28.04
2022-08-17T11:37:41.848Z,28.37
2022-08-17T11:39:51.831Z,28.36
2022-08-17T11:42:16.966Z,28.74
2022-08-17T11:44:37.608Z,28.17
2022-08-17T11:47:33.559Z,27.86
2022-08-17T11:50:15.852Z,27.47
2022-08-17T11:52:38.399Z,27.24
2022-08-17T11:54:47.623Z,26.98
2022-08-17T11:56:51.206Z,27.31
2022-08-17T11:58:52.669Z,27.50
2022-08-17T12:00:58.260Z,27.10
2022-08-17T12:03:31.984Z,27.54
2022-08-17T12:05:35.054Z,27.25
2022-08-17T12:07:46.386Z,27.42
2022-08-17T12:09:50.842Z,27.21
2022-08-17T12:12:12.361Z,26.63
2022-08-17T12:14:29.523Z,26.34
2022-08-17T12:16:44.370Z,26.83
2022-08-17T12:18:58.995Z,27.22
2022-08-17T12:21:28.967Z,27.24
2022-08-17T12:23:47.322Z,25.46
2022-08-17T12:26:10.106Z,25.28
2022-08-17T12:28:30.982Z,25.01
2022-08-17T12:30:32.782Z,24.98
2022-08-17T12:32:36.015Z,25.00
2022-08-17T12:34:42.684Z,24.51
2022-08-17T12:36:45.273Z,24.95
2022-08-17T12:38:57.139Z,24.65
2022-08-17T12:40:59.823Z,24.57
2022-08-17T12:43:07.698Z,24.61
2022-08-17T12:45:36.089Z,23.96
2022-08-17T12:47:37.912Z,24.10
2022-08-17T12:49:42.607Z,24.03
2022-08-17T12:51:47.279Z,23.83
2022-08-17T12:53:55.063Z,23.95
2022-08-17T12:55:59.656Z,24.07
2022-08-17T12:58:02.214Z,23.93
2022-08-17T13:00:22.108Z,23.35
2022-08-17T13:02:31.820Z,23.66
2022-08-17T13:04:33.622Z,23.82
2022-08-17T13:06:36.939Z,23.95
2022-08-17T13:08:45.204Z,23.78
2022-08-17T13:11:03.464Z,23.67
2022-08-17T13:13:19.496Z,24.07
2022-08-17T13:15:25.008Z,24.44
2022-08-17T13:17:33.325Z,24.03
2022-08-17T13:19:40.313Z,24.28
2022-08-17T13:21:49.722Z,24.49
2022-08-17T13:23:57.311Z,24.44
2022-08-17T13:26:06.959Z,24.54
2022-08-17T13:28:18.431Z,24.08
2022-08-17T13:30:33.445Z,24.39
2022-08-17T13:32:44.117Z,24.39
2022-08-17T13:35:14.363Z,24.14
2022-08-17T13:37:42.641Z,24.51
2022-08-17T13:39:45.168Z,24.33
2022-08-17T13:41:48.834Z,24.14
2022-08-17T13:43:50.751Z,24.22
2022-08-17T13:45:53.263Z,24.39
2022-08-17T13:48:20.652Z,24.90
2022-08-17T13:50:22.474Z,24.83
2022-08-17T13:52:38.015Z,24.97
2022-08-17T13:54:40.877Z,24.81
2022-08-17T13:57:02.249Z,24.45
2022-08-17T13:59:11.097Z,25.36
2022-08-17T14:01:36.626Z,24.80
2022-08-17T14:03:38.227Z,25.43
2022-08-17T14:05:39.749Z,24.93
2022-08-17T14:07:41.623Z,25.45
2022-08-17T14:09:48.310Z,25.09
2022-08-17T14:11:51.691Z,25.78
2022-08-17T14:13:53.278Z,25.79
2022-08-17T14:15:56.816Z,25.73
2022-08-17T14:17:58.552Z,25.62
2022-08-17T14:20:00.266Z,25.85
2022-08-17T14:22:03.042Z,25.78
2022-08-17T14:24:05.246Z,26.20
2022-08-17T14:26:06.938Z,25.87
2022-08-17T14:28:08.436Z,26.01
2022-08-17T14:30:10.586Z,26.03
2022-08-17T14:32:20.198Z,25.57
2022-08-17T14:34:24.067Z,26.23
2022-08-17T14:36:26.258Z,26.16
2022-08-17T14:38:28.010Z,26.21
2022-08-17T14:40:30.353Z,26.12
2022-08-17T14:42:35.108Z,25.87
2022-08-17T14:44:39.878Z,25.94
2022-08-17T14:46:43.609Z,25.69
2022-08-17T14:48:45.389Z,25.95
2022-08-17T14:50:46.932Z,25.98
2022-08-17T14:52:49.303Z,25.75
2022-08-17T14:54:52.611Z,25.97
2022-08-17T14:57:22.472Z,26.07
2022-08-17T14:59:16.998Z,26.23
2022-08-17T15:01:21.019Z,25.95
2022-08-17T15:03:23.472Z,25.71
2022-08-17T15:05:29.216Z,25.93
2022-08-17T15:07:31.615Z,25.50
2022-08-17T15:09:35.785Z,26.14
2022-08-17T15:11:38.570Z,25.77
2022-08-17T15:13:52.699Z,26.38
2022-08-17T15:15:55.082Z,26.33
2022-08-17T15:17:58.245Z,26.29
2022-08-17T15:20:00.339Z,26.33
2022-08-17T15:22:03.115Z,26.46
2022-08-17T15:24:06.059Z,26.08
2022-08-17T15:26:07.777Z,26.14
2022-08-17T15:28:09.633Z,26.11
2022-08-17T15:30:11.778Z,26.38
2022-08-17T15:32:35.283Z,26.57
2022-08-17T15:34:37.486Z,26.29
2022-08-17T15:36:41.348Z,26.09
2022-08-17T15:38:51.507Z,26.57
2022-08-17T15:40:53.798Z,26.48
2022-08-17T15:42:55.528Z,26.67
2022-08-17T15:44:57.576Z,26.34
2022-08-17T15:46:59.095Z,26.77
2022-08-17T15:49:00.859Z,26.32
2022-08-17T15:51:02.611Z,26.47
2022-08-17T15:53:04.951Z,26.39
2022-08-17T15:55:10.938Z,26.43
2022-08-17T15:57:12.406Z,26.71
2022-08-17T15:59:14.001Z,26.70
2022-08-17T16:02:24.763Z,26.73
2022-08-17T16:04:01.591Z,26.71
2022-08-17T16:06:02.876Z,26.62
2022-08-17T16:08:04.632Z,26.51
2022-08-17T16:10:08.971Z,27.01
2022-08-17T16:12:11.821Z,27.02
2022-08-17T16:14:14.058Z,26.82
2022-08-17T16:16:16.896Z,27.18
2022-08-17T16:18:18.496Z,26.92
2022-08-17T16:20:21.110Z,26.80
2022-08-17T16:22:38.209Z,26.81
2022-08-17T16:24:56.808Z,26.80
2022-08-17T16:26:59.189Z,27.10
2022-08-17T16:29:04.053Z,27.10
2022-08-17T16:31:08.234Z,27.26
2022-08-17T16:33:12.062Z,27.18
2022-08-17T16:35:18.229Z,27.32
2022-08-17T16:37:19.744Z,27.23
2022-08-17T16:39:25.563Z,27.06
2022-08-17T16:41:44.342Z,27.11
2022-08-17T16:43:47.146Z,27.24
2022-08-17T16:45:52.091Z,27.33
2022-08-17T16:47:54.798Z,27.37
2022-08-17T16:49:56.516Z,27.45
2022-08-17T16:52:03.139Z,27.31
2022-08-17T16:54:06.632Z,27.57
2022-08-17T16:56:08.233Z,27.53
2022-08-17T16:58:10.091Z,27.36
2022-08-17T17:00:13.785Z,27.44
2022-08-17T17:02:23.428Z,27.64
2022-08-17T17:04:26.665Z,27.81
2022-08-17T17:06:40.028Z,27.66
2022-08-17T17:08:48.502Z,27.61
2022-08-17T17:10:52.759Z,27.77
2022-08-17T17:13:03.730Z,27.88
2022-08-17T17:15:07.526Z,27.62
2022-08-17T17:17:32.664Z,27.93
2022-08-17T17:19:41.258Z,28.33
2022-08-17T17:22:04.954Z,28.16
2022-08-17T17:24:12.930Z,28.51
2022-08-17T17:26:27.332Z,28.10
2022-08-17T17:29:04.418Z,28.07
2022-08-17T17:31:13.793Z,28.35
2022-08-17T17:33:19.719Z,28.27
2022-08-17T17:35:31.743Z,28.46
2022-08-17T17:37:36.532Z,28.31
2022-08-17T17:39:49.760Z,28.30
2022-08-17T17:41:54.334Z,27.98
2022-08-17T17:44:08.529Z,28.09
2022-08-17T17:46:27.548Z,28.40
2022-08-17T17:48:30.900Z,28.42
2022-08-17T17:50:42.752Z,28.00
2022-08-17T17:53:04.620Z,28.17
2022-08-17T17:55:06.211Z,28.44
2022-08-17T17:57:36.342Z,28.46
2022-08-17T17:59:44.744Z,28.67
2022-08-17T18:02:01.126Z,28.68
2022-08-17T18:04:25.948Z,28.63
2022-08-17T18:07:10.063Z,29.06
2022-08-17T18:09:33.886Z,28.97
2022-08-17T18:11:51.357Z,28.90
2022-08-17T18:14:16.423Z,29.13
2022-08-17T18:16:18.365Z,29.10
2022-08-17T18:18:38.778Z,29.27
2022-08-17T18:20:53.645Z,29.32
2022-08-17T18:22:57.739Z,29.48
2022-08-17T18:24:59.580Z,29.18
2022-08-17T18:27:08.370Z,29.16
2022-08-17T18:29:15.963Z,29.54
2022-08-17T18:31:19.754Z,29.93
2022-08-17T18:33:26.437Z,29.72
2022-08-17T18:35:31.975Z,29.84
2022-08-17T18:37:48.522Z,30.33
2022-08-17T18:39:50.117Z,30.27
2022-08-17T18:41:55.354Z,30.49
2022-08-17T18:44:03.189Z,29.95
2022-08-17T18:46:28.948Z,30.30
2022-08-17T18:48:49.531Z,30.38
2022-08-17T18:50:53.652Z,29.92
2022-08-17T18:53:35.178Z,30.62
2022-08-17T18:55:38.042Z,30.29
2022-08-17T18:57:46.603Z,30.32
2022-08-17T18:59:48.553Z,30.15
2022-08-17T19:01:58.474Z,30.42
2022-08-17T19:04:00.866Z,30.87
2022-08-17T19:06:29.962Z,30.93
2022-08-17T19:08:31.654Z,30.82
2022-08-17T19:10:46.651Z,30.41
2022-08-17T19:13:01.628Z,31.01
2022-08-17T19:15:20.872Z,31.04
2022-08-17T19:17:33.351Z,31.18
2022-08-17T19:19:45.878Z,30.88
2022-08-17T19:21:54.862Z,31.09
2022-08-17T19:24:12.175Z,31.01
2022-08-17T19:26:54.600Z,31.09
2022-08-17T19:28:57.303Z,31.55
2022-08-17T19:31:06.985Z,31.56
2022-08-17T19:33:08.726Z,31.46
2022-08-17T19:35:17.105Z,31.52
2022-08-17T19:37:34.631Z,32.09
2022-08-17T19:39:50.714Z,31.93
2022-08-17T19:42:15.830Z,31.79
2022-08-17T19:44:49.245Z,32.28
2022-08-17T19:47:01.824Z,32.00
2022-08-17T19:49:18.527Z,32.37
2022-08-17T19:51:30.901Z,32.63
2022-08-17T19:54:05.467Z,32.79
2022-08-17T19:56:40.172Z,32.94
2022-08-17T19:59:09.263Z,32.79
2022-08-17T20:01:19.791Z,32.86
2022-08-17T20:03:38.538Z,33.07
2022-08-17T20:06:11.881Z,32.76
2022-08-17T20:08:23.592Z,32.80
2022-08-17T20:10:48.055Z,33.40
2022-08-17T20:13:03.150Z,33.24
2022-08-17T20:15:11.126Z,33.28
2022-08-17T20:17:13.158Z,33.12
2022-08-17T20:19:28.073Z,33.52
2022-08-17T20:21:55.959Z,33.57
2022-08-17T20:24:20.171Z,33.33
2022-08-17T20:26:30.451Z,33.56
2022-08-17T20:28:35.517Z,33.63
2022-08-17T20:30:40.093Z,33.85
2022-08-17T20:32:55.263Z,33.90
2022-08-17T20:35:26.335Z,33.90
2022-08-17T20:37:31.671Z,33.99
2022-08-17T20:39:56.667Z,34.17
2022-08-17T20:42:12.549Z,34.29
2022-08-17T20:44:32.573Z,34.36
2022-08-17T20:46:36.845Z,34.37
2022-08-17T20:48:46.177Z,34.47
2022-08-17T20:50:56.104Z,34.34
2022-08-17T20:53:01.028Z,34.14
2022-08-17T20:55:04.401Z,34.25
2022-08-17T20:57:09.185Z,34.63
2022-08-17T20:59:30.360Z,34.52
2022-08-17T21:01:40.081Z,34.59
2022-08-17T21:03:50.415Z,34.90
2022-08-17T21:06:15.335Z,34.80
2022-08-17T21:08:29.532Z,35.22
2022-08-17T21:10:35.781Z,35.22
2022-08-17T21:12:40.478Z,35.41
2022-08-17T21:15:00.828Z,35.43
2022-08-17T21:17:39.102Z,35.71
2022-08-17T21:20:17.399Z,35.83
2022-08-17T21:22:31.045Z,35.83
2022-08-17T21:24:42.466Z,35.63
2022-08-17T21:26:55.316Z,35.80
2022-08-17T21:29:30.905Z,36.12
2022-08-17T21:31:37.224Z,36.05
2022-08-17T21:33:39.926Z,36.10
2022-08-17T21:36:15.198Z,36.63
2022-08-17T21:38:21.185Z,36.01
2022-08-17T21:40:30.066Z,36.54
2022-08-17T21:42:35.818Z,36.68
2022-08-17T21:44:41.661Z,36.23
2022-08-17T21:46:46.620Z,36.57
2022-08-17T21:48:50.440Z,36.31
2022-08-17T21:50:59.362Z,36.39
2022-08-17T21:53:03.110Z,36.65
2022-08-17T21:55:05.429Z,36.69
2022-08-17T21:57:16.639Z,36.51
2022-08-17T21:59:19.386Z,36.25
2022-08-17T22:01:31.877Z,36.77
2022-08-17T22:03:33.571Z,36.53
2022-08-17T22:05:38.315Z,36.48
2022-08-17T22:07:46.888Z,36.80
2022-08-17T22:09:50.266Z,36.55
2022-08-17T22:12:09.060Z,36.78
2022-08-17T22:14:22.141Z,36.99
2022-08-17T22:16:28.401Z,37.02
2022-08-17T22:18:32.098Z,37.36
2022-08-17T22:20:33.884Z,37.22
2022-08-17T22:22:55.847Z,37.11
2022-08-17T22:25:06.718Z,37.32
2022-08-17T22:27:11.456Z,37.80
2022-08-17T22:29:54.354Z,37.72
2022-08-17T22:31:59.359Z,37.52
2022-08-17T22:34:00.837Z,37.51
2022-08-17T22:36:09.318Z,37.77
2022-08-17T22:38:17.881Z,37.86
2022-08-17T22:40:31.732Z,37.77
2022-08-17T22:42:44.157Z,37.67
2022-08-17T22:44:48.550Z,37.89
2022-08-17T22:46:56.187Z,37.46
2022-08-17T22:48:59.454Z,37.72
2022-08-17T22:51:17.536Z,38.00
2022-08-17T22:53:40.850Z,37.52
2022-08-17T22:56:15.523Z,38.03
2022-08-17T22:58:42.856Z,38.02
2022-08-17T23:00:47.267Z,37.69
2022-08-17T23:03:05.603Z,38.10
2022-08-17T23:05:13.088Z,37.95
2022-08-17T23:07:14.929Z,38.01
2022-08-17T23:09:16.701Z,37.88
2022-08-17T23:11:18.334Z,37.53
2022-08-17T23:13:21.418Z,37.97
2022-08-17T23:15:25.219Z,37.69
2022-08-17T23:17:28.779Z,37.85
2022-08-17T23:19:33.336Z,37.76
2022-08-17T23:21:37.154Z,38.36
2022-08-17T23:23:39.241Z,38.11
2022-08-17T23:25:44.622Z,37.78
2022-08-17T23:27:48.725Z,38.31
2022-08-17T23:29:50.349Z,37.91
2022-08-17T23:31:52.717Z,37.99
2022-08-17T23:33:54.356Z,38.43
2022-08-17T23:35:58.944Z,38.44
2022-08-17T23:38:02.277Z,38.22
2022-08-17T23:40:05.223Z,38.16
2022-08-17T23:42:09.365Z,38.17
2022-08-17T23:44:12.484Z,38.53
2022-08-17T23:46:14.643Z,38.47
2022-08-17T23:48:16.249Z,38.57
2022-08-17T23:50:38.291Z,38.49
2022-08-17T23:52:42.580Z,38.30
2022-08-17T23:54:48.519Z,38.20
2022-08-17T23:56:50.480Z,38.65
2022-08-17T23:58:54.842Z,38.29
